sensor_id;sensor_type;location;lat;lon;timestamp;P1;durP1;ratioP1;P2;durP2;ratioP2
22289;SDS011;11313;50.116;8.424;2023-06-26T02:58:46;3.95;;;3.40;;
22289;SDS011;11313;50.116;8.424;2023-06-26T03:04:51;5.78;;;3.53;;
22289;SDS011;11313;50.116;8.424;2023-06-26T03:07:58;3.80;;;3.25;;
22289;SDS011;11313;50.116;8.424;2023-06-26T03:11:18;4.15;;;3.50;;
22289;SDS011;11313;50.116;8.424;2023-06-26T03:25:02;3.72;;;3.08;;
22289;SDS011;11313;50.116;8.424;2023-06-26T03:31:29;3.65;;;3.28;;
22289;SDS011;11313;50.116;8.424;2023-06-26T03:37:29;4.10;;;3.30;;
22289;SDS011;11313;50.116;8.424;2023-06-26T03:43:24;4.82;;;3.70;;
22289;SDS011;11313;50.116;8.424;2023-06-26T03:46:35;5.00;;;3.83;;
22289;SDS011;11313;50.116;8.424;2023-06-26T03:49:31;5.38;;;3.17;;
22289;SDS011;11313;50.116;8.424;2023-06-26T03:56:01;5.68;;;3.58;;
22289;SDS011;11313;50.116;8.424;2023-06-26T03:58:57;4.20;;;3.80;;
22289;SDS011;11313;50.116;8.424;2023-06-26T04:05:14;5.25;;;3.47;;
22289;SDS011;11313;50.116;8.424;2023-06-26T04:07:53;5.03;;;3.55;;
22289;SDS011;11313;50.116;8.424;2023-06-26T04:16:55;4.07;;;3.10;;
22289;SDS011;11313;50.116;8.424;2023-06-26T04:19:41;4.18;;;3.28;;
22289;SDS011;11313;50.116;8.424;2023-06-26T04:22:17;4.13;;;3.45;;
22289;SDS011;11313;50.116;8.424;2023-06-26T04:24:54;4.57;;;3.28;;
22289;SDS011;11313;50.116;8.424;2023-06-26T04:27:30;5.63;;;3.22;;
22289;SDS011;11313;50.116;8.424;2023-06-26T04:30:03;4.90;;;3.63;;
22289;SDS011;11313;50.116;8.424;2023-06-26T04:32:30;4.13;;;3.47;;
22289;SDS011;11313;50.116;8.424;2023-06-26T04:35:07;5.35;;;3.80;;
22289;SDS011;11313;50.116;8.424;2023-06-26T04:37:33;5.00;;;3.47;;
22289;SDS011;11313;50.116;8.424;2023-06-26T04:40:10;5.15;;;3.50;;
22289;SDS011;11313;50.116;8.424;2023-06-26T04:42:36;4.40;;;3.33;;
22289;SDS011;11313;50.116;8.424;2023-06-26T04:45:01;3.85;;;3.42;;
22289;SDS011;11313;50.116;8.424;2023-06-26T04:47:29;6.10;;;3.17;;
22289;SDS011;11313;50.116;8.424;2023-06-26T04:50:00;5.32;;;3.08;;
22289;SDS011;11313;50.116;8.424;2023-06-26T04:52:31;6.15;;;3.35;;
22289;SDS011;11313;50.116;8.424;2023-06-26T04:54:59;5.53;;;3.65;;
22289;SDS011;11313;50.116;8.424;2023-06-26T04:57:25;12.25;;;4.15;;
22289;SDS011;11313;50.116;8.424;2023-06-26T04:59:53;8.50;;;4.50;;
22289;SDS011;11313;50.116;8.424;2023-06-26T05:02:18;6.53;;;3.83;;
22289;SDS011;11313;50.116;8.424;2023-06-26T05:07:37;8.13;;;3.83;;
22289;SDS011;11313;50.116;8.424;2023-06-26T05:10:06;12.32;;;4.10;;
22289;SDS011;11313;50.116;8.424;2023-06-26T05:12:35;20.20;;;4.45;;
22289;SDS011;11313;50.116;8.424;2023-06-26T05:15:18;9.60;;;4.45;;
22289;SDS011;11313;50.116;8.424;2023-06-26T05:17:51;10.55;;;4.82;;
22289;SDS011;11313;50.116;8.424;2023-06-26T05:23:35;9.85;;;4.57;;
22289;SDS011;11313;50.116;8.424;2023-06-26T05:26:38;12.30;;;5.03;;
22289;SDS011;11313;50.116;8.424;2023-06-26T05:29:03;11.15;;;5.20;;
22289;SDS011;11313;50.116;8.424;2023-06-26T05:31:47;12.23;;;4.75;;
22289;SDS011;11313;50.116;8.424;2023-06-26T05:40:54;10.27;;;5.43;;
22289;SDS011;11313;50.116;8.424;2023-06-26T05:43:54;11.52;;;5.30;;
22289;SDS011;11313;50.116;8.424;2023-06-26T05:46:57;13.95;;;5.63;;
22289;SDS011;11313;50.116;8.424;2023-06-26T05:53:03;13.98;;;5.43;;
22289;SDS011;11313;50.116;8.424;2023-06-26T05:56:19;11.25;;;5.40;;
22289;SDS011;11313;50.116;8.424;2023-06-26T05:59:21;9.00;;;5.80;;
22289;SDS011;11313;50.116;8.424;2023-06-26T06:06:11;11.93;;;5.55;;
22289;SDS011;11313;50.116;8.424;2023-06-26T06:08:49;11.15;;;5.15;;
22289;SDS011;11313;50.116;8.424;2023-06-26T06:11:34;9.07;;;5.90;;
22289;SDS011;11313;50.116;8.424;2023-06-26T06:14:02;11.23;;;5.60;;
22289;SDS011;11313;50.116;8.424;2023-06-26T06:19:53;9.25;;;5.03;;
22289;SDS011;11313;50.116;8.424;2023-06-26T06:26:12;11.60;;;5.85;;
22289;SDS011;11313;50.116;8.424;2023-06-26T06:28:53;10.68;;;5.13;;
22289;SDS011;11313;50.116;8.424;2023-06-26T06:31:52;8.10;;;5.20;;
22289;SDS011;11313;50.116;8.424;2023-06-26T06:37:43;8.25;;;5.32;;
22289;SDS011;11313;50.116;8.424;2023-06-26T06:40:19;8.48;;;5.40;;
22289;SDS011;11313;50.116;8.424;2023-06-26T06:49:16;7.80;;;5.20;;
22289;SDS011;11313;50.116;8.424;2023-06-26T06:55:42;7.88;;;5.25;;
22289;SDS011;11313;50.116;8.424;2023-06-26T06:58:59;7.20;;;5.00;;
22289;SDS011;11313;50.116;8.424;2023-06-26T07:01:58;7.20;;;4.70;;
22289;SDS011;11313;50.116;8.424;2023-06-26T07:05:09;7.60;;;4.57;;
22289;SDS011;11313;50.116;8.424;2023-06-26T07:08:19;7.03;;;4.78;;
22289;SDS011;11313;50.116;8.424;2023-06-26T07:11:36;9.43;;;4.75;;
22289;SDS011;11313;50.116;8.424;2023-06-26T07:14:39;8.73;;;4.93;;
22289;SDS011;11313;50.116;8.424;2023-06-26T07:21:15;7.15;;;4.97;;
22289;SDS011;11313;50.116;8.424;2023-06-26T07:25:13;8.13;;;5.03;;
22289;SDS011;11313;50.116;8.424;2023-06-26T07:38:47;6.65;;;4.72;;
22289;SDS011;11313;50.116;8.424;2023-06-26T07:42:01;5.70;;;4.28;;
22289;SDS011;11313;50.116;8.424;2023-06-26T07:49:24;8.48;;;4.63;;
22289;SDS011;11313;50.116;8.424;2023-06-26T18:06:26;4.47;;;2.33;;
22289;SDS011;11313;50.116;8.424;2023-06-26T18:08:53;5.38;;;2.58;;
22289;SDS011;11313;50.116;8.424;2023-06-26T18:11:24;5.03;;;2.40;;
22289;SDS011;11313;50.116;8.424;2023-06-26T18:13:49;4.28;;;2.47;;
22289;SDS011;11313;50.116;8.424;2023-06-26T18:16:15;6.38;;;2.30;;
22289;SDS011;11313;50.116;8.424;2023-06-26T18:18:40;6.97;;;2.50;;
22289;SDS011;11313;50.116;8.424;2023-06-26T18:21:06;8.82;;;2.55;;
22289;SDS011;11313;50.116;8.424;2023-06-26T18:23:32;3.83;;;2.33;;
22289;SDS011;11313;50.116;8.424;2023-06-26T18:25:58;7.70;;;2.55;;
22289;SDS011;11313;50.116;8.424;2023-06-26T18:28:25;5.95;;;2.22;;
22289;SDS011;11313;50.116;8.424;2023-06-26T18:30:50;4.20;;;2.30;;
22289;SDS011;11313;50.116;8.424;2023-06-26T18:33:16;4.57;;;2.10;;
22289;SDS011;11313;50.116;8.424;2023-06-26T18:35:41;4.70;;;2.00;;
22289;SDS011;11313;50.116;8.424;2023-06-26T18:38:07;3.42;;;2.10;;
22289;SDS011;11313;50.116;8.424;2023-06-26T18:40:36;4.25;;;2.10;;
22289;SDS011;11313;50.116;8.424;2023-06-26T18:43:02;3.38;;;2.03;;
22289;SDS011;11313;50.116;8.424;2023-06-26T18:45:28;3.72;;;1.92;;
22289;SDS011;11313;50.116;8.424;2023-06-26T18:47:54;3.97;;;2.10;;
22289;SDS011;11313;50.116;8.424;2023-06-26T18:50:20;5.47;;;2.08;;
22289;SDS011;11313;50.116;8.424;2023-06-26T18:52:50;5.80;;;2.03;;
22289;SDS011;11313;50.116;8.424;2023-06-26T18:55:15;3.78;;;1.90;;
22289;SDS011;11313;50.116;8.424;2023-06-26T18:57:42;5.40;;;2.08;;
22289;SDS011;11313;50.116;8.424;2023-06-26T19:00:08;5.97;;;2.10;;
22289;SDS011;11313;50.116;8.424;2023-06-26T19:02:33;4.05;;;2.03;;
22289;SDS011;11313;50.116;8.424;2023-06-26T19:05:00;4.22;;;2.00;;
22289;SDS011;11313;50.116;8.424;2023-06-26T19:07:26;4.35;;;1.80;;
22289;SDS011;11313;50.116;8.424;2023-06-26T19:09:51;3.78;;;1.98;;
22289;SDS011;11313;50.116;8.424;2023-06-26T19:12:16;3.70;;;1.80;;
22289;SDS011;11313;50.116;8.424;2023-06-26T19:14:43;3.80;;;1.90;;
22289;SDS011;11313;50.116;8.424;2023-06-26T19:17:09;4.55;;;1.90;;
22289;SDS011;11313;50.116;8.424;2023-06-26T19:19:38;3.40;;;1.98;;
22289;SDS011;11313;50.116;8.424;2023-06-26T19:22:04;3.25;;;1.98;;
22289;SDS011;11313;50.116;8.424;2023-06-26T19:24:29;4.85;;;1.95;;
22289;SDS011;11313;50.116;8.424;2023-06-26T19:26:55;5.28;;;1.85;;
22289;SDS011;11313;50.116;8.424;2023-06-26T19:29:23;5.03;;;2.00;;
22289;SDS011;11313;50.116;8.424;2023-06-26T19:31:49;14.50;;;1.80;;
22289;SDS011;11313;50.116;8.424;2023-06-26T19:34:16;3.35;;;1.73;;
22289;SDS011;11313;50.116;8.424;2023-06-26T19:36:42;9.68;;;2.10;;
22289;SDS011;11313;50.116;8.424;2023-06-26T19:39:08;3.80;;;1.90;;
22289;SDS011;11313;50.116;8.424;2023-06-26T19:41:33;3.92;;;1.60;;
22289;SDS011;11313;50.116;8.424;2023-06-26T19:43:59;4.63;;;1.80;;
22289;SDS011;11313;50.116;8.424;2023-06-26T19:46:25;3.08;;;1.83;;
22289;SDS011;11313;50.116;8.424;2023-06-26T19:48:50;3.60;;;1.88;;
22289;SDS011;11313;50.116;8.424;2023-06-26T19:51:16;7.55;;;2.00;;
22289;SDS011;11313;50.116;8.424;2023-06-26T19:53:42;6.00;;;1.80;;
22289;SDS011;11313;50.116;8.424;2023-06-26T19:56:08;3.53;;;1.63;;
22289;SDS011;11313;50.116;8.424;2023-06-26T19:58:34;4.18;;;2.05;;
22289;SDS011;11313;50.116;8.424;2023-06-26T20:00:59;4.55;;;1.60;;
22289;SDS011;11313;50.116;8.424;2023-06-26T20:03:24;2.90;;;1.70;;
22289;SDS011;11313;50.116;8.424;2023-06-26T20:05:50;2.28;;;1.55;;
22289;SDS011;11313;50.116;8.424;2023-06-26T20:08:15;2.08;;;1.60;;
22289;SDS011;11313;50.116;8.424;2023-06-26T20:10:41;2.83;;;1.60;;
22289;SDS011;11313;50.116;8.424;2023-06-26T20:13:06;2.63;;;1.80;;
22289;SDS011;11313;50.116;8.424;2023-06-26T20:15:33;2.85;;;1.80;;
22289;SDS011;11313;50.116;8.424;2023-06-26T20:17:58;1.90;;;1.45;;
22289;SDS011;11313;50.116;8.424;2023-06-26T20:20:24;2.45;;;1.38;;
22289;SDS011;11313;50.116;8.424;2023-06-26T20:22:49;2.05;;;1.38;;
22289;SDS011;11313;50.116;8.424;2023-06-26T20:25:15;3.53;;;1.60;;
22289;SDS011;11313;50.116;8.424;2023-06-26T20:27:40;3.40;;;1.60;;
22289;SDS011;11313;50.116;8.424;2023-06-26T20:30:06;2.38;;;1.60;;
22289;SDS011;11313;50.116;8.424;2023-06-26T20:35:41;2.60;;;1.60;;
22289;SDS011;11313;50.116;8.424;2023-06-26T20:38:07;3.70;;;1.90;;
22289;SDS011;11313;50.116;8.424;2023-06-26T20:40:32;4.22;;;1.83;;
22289;SDS011;11313;50.116;8.424;2023-06-26T20:42:58;3.42;;;1.60;;
22289;SDS011;11313;50.116;8.424;2023-06-26T20:45:24;3.28;;;1.70;;
22289;SDS011;11313;50.116;8.424;2023-06-26T20:47:50;2.17;;;1.45;;
22289;SDS011;11313;50.116;8.424;2023-06-26T20:50:16;2.75;;;1.80;;
22289;SDS011;11313;50.116;8.424;2023-06-26T20:52:42;2.78;;;1.58;;
22289;SDS011;11313;50.116;8.424;2023-06-26T20:55:08;2.30;;;1.40;;
22289;SDS011;11313;50.116;8.424;2023-06-26T20:57:35;3.35;;;1.38;;
22289;SDS011;11313;50.116;8.424;2023-06-26T21:00:00;2.72;;;1.70;;
22289;SDS011;11313;50.116;8.424;2023-06-26T21:02:26;2.28;;;1.50;;
22289;SDS011;11313;50.116;8.424;2023-06-26T21:04:52;2.47;;;1.65;;
22289;SDS011;11313;50.116;8.424;2023-06-26T21:07:17;3.80;;;1.55;;
22289;SDS011;11313;50.116;8.424;2023-06-26T21:09:43;2.90;;;1.60;;
22289;SDS011;11313;50.116;8.424;2023-06-26T21:12:09;2.25;;;1.50;;
22289;SDS011;11313;50.116;8.424;2023-06-26T21:14:34;3.40;;;1.50;;
22289;SDS011;11313;50.116;8.424;2023-06-26T21:17:00;2.35;;;1.60;;
22289;SDS011;11313;50.116;8.424;2023-06-26T21:19:26;3.20;;;1.38;;
22289;SDS011;11313;50.116;8.424;2023-06-26T21:21:51;2.15;;;1.50;;
22289;SDS011;11313;50.116;8.424;2023-06-26T21:24:17;2.85;;;1.65;;
22289;SDS011;11313;50.116;8.424;2023-06-26T21:26:42;1.80;;;1.40;;
22289;SDS011;11313;50.116;8.424;2023-06-26T21:29:08;2.00;;;1.40;;
22289;SDS011;11313;50.116;8.424;2023-06-26T21:31:33;2.95;;;1.52;;
22289;SDS011;11313;50.116;8.424;2023-06-26T21:33:59;1.88;;;1.40;;
22289;SDS011;11313;50.116;8.424;2023-06-26T21:36:25;2.65;;;1.35;;
22289;SDS011;11313;50.116;8.424;2023-06-26T21:38:54;2.25;;;1.20;;
22289;SDS011;11313;50.116;8.424;2023-06-26T21:41:22;2.30;;;1.30;;
22289;SDS011;11313;50.116;8.424;2023-06-26T21:43:47;2.72;;;1.67;;
22289;SDS011;11313;50.116;8.424;2023-06-26T21:46:13;2.85;;;1.40;;
22289;SDS011;11313;50.116;8.424;2023-06-26T21:48:38;2.22;;;1.20;;
22289;SDS011;11313;50.116;8.424;2023-06-26T21:51:04;1.88;;;1.52;;
22289;SDS011;11313;50.116;8.424;2023-06-26T21:53:29;3.47;;;1.55;;
22289;SDS011;11313;50.116;8.424;2023-06-26T21:55:55;2.45;;;1.45;;
22289;SDS011;11313;50.116;8.424;2023-06-26T21:58:20;1.98;;;1.48;;
22289;SDS011;11313;50.116;8.424;2023-06-26T22:00:46;2.90;;;1.40;;
22289;SDS011;11313;50.116;8.424;2023-06-26T22:03:11;2.38;;;1.60;;
22289;SDS011;11313;50.116;8.424;2023-06-26T22:05:37;1.80;;;1.30;;
22289;SDS011;11313;50.116;8.424;2023-06-26T22:08:03;1.85;;;1.50;;
22289;SDS011;11313;50.116;8.424;2023-06-26T22:10:30;2.00;;;1.33;;
22289;SDS011;11313;50.116;8.424;2023-06-26T22:12:56;1.88;;;1.38;;
22289;SDS011;11313;50.116;8.424;2023-06-26T22:15:21;1.67;;;1.33;;
22289;SDS011;11313;50.116;8.424;2023-06-26T22:17:48;2.90;;;1.42;;
22289;SDS011;11313;50.116;8.424;2023-06-26T22:20:15;2.05;;;1.35;;
22289;SDS011;11313;50.116;8.424;2023-06-26T22:22:42;1.50;;;1.27;;
22289;SDS011;11313;50.116;8.424;2023-06-26T22:25:08;2.05;;;1.40;;
22289;SDS011;11313;50.116;8.424;2023-06-26T22:27:35;2.35;;;1.42;;
22289;SDS011;11313;50.116;8.424;2023-06-26T22:30:01;3.42;;;1.35;;
22289;SDS011;11313;50.116;8.424;2023-06-26T22:32:27;1.50;;;1.30;;
22289;SDS011;11313;50.116;8.424;2023-06-26T22:34:52;2.35;;;1.48;;
22289;SDS011;11313;50.116;8.424;2023-06-26T22:37:18;2.17;;;1.27;;
22289;SDS011;11313;50.116;8.424;2023-06-26T22:39:43;2.67;;;1.55;;
22289;SDS011;11313;50.116;8.424;2023-06-26T22:42:09;1.88;;;1.45;;
22289;SDS011;11313;50.116;8.424;2023-06-26T22:44:34;3.78;;;1.48;;
22289;SDS011;11313;50.116;8.424;2023-06-26T22:46:59;2.28;;;1.60;;
22289;SDS011;11313;50.116;8.424;2023-06-26T22:49:25;1.95;;;1.50;;
22289;SDS011;11313;50.116;8.424;2023-06-26T22:51:50;2.03;;;1.50;;
22289;SDS011;11313;50.116;8.424;2023-06-26T22:54:16;2.45;;;1.30;;
22289;SDS011;11313;50.116;8.424;2023-06-26T22:56:42;2.28;;;1.40;;
22289;SDS011;11313;50.116;8.424;2023-06-26T22:59:08;1.60;;;1.45;;
22289;SDS011;11313;50.116;8.424;2023-06-26T23:01:33;1.45;;;1.20;;
22289;SDS011;11313;50.116;8.424;2023-06-26T23:04:01;2.40;;;1.45;;
22289;SDS011;11313;50.116;8.424;2023-06-26T23:06:28;2.05;;;1.40;;
22289;SDS011;11313;50.116;8.424;2023-06-26T23:08:53;2.20;;;1.40;;
22289;SDS011;11313;50.116;8.424;2023-06-26T23:11:19;1.67;;;1.40;;
22289;SDS011;11313;50.116;8.424;2023-06-26T23:13:46;2.13;;;1.42;;
22289;SDS011;11313;50.116;8.424;2023-06-26T23:16:11;2.28;;;1.45;;
22289;SDS011;11313;50.116;8.424;2023-06-26T23:18:38;2.15;;;1.40;;
22289;SDS011;11313;50.116;8.424;2023-06-26T23:21:04;1.92;;;1.23;;
22289;SDS011;11313;50.116;8.424;2023-06-26T23:23:30;1.75;;;1.20;;
22289;SDS011;11313;50.116;8.424;2023-06-26T23:25:56;2.20;;;1.30;;
22289;SDS011;11313;50.116;8.424;2023-06-26T23:28:22;2.00;;;1.30;;
22289;SDS011;11313;50.116;8.424;2023-06-26T23:30:48;1.52;;;1.30;;
22289;SDS011;11313;50.116;8.424;2023-06-26T23:33:13;2.10;;;1.33;;
22289;SDS011;11313;50.116;8.424;2023-06-26T23:35:39;1.85;;;1.30;;
22289;SDS011;11313;50.116;8.424;2023-06-26T23:38:04;2.45;;;1.20;;
22289;SDS011;11313;50.116;8.424;2023-06-26T23:40:30;1.85;;;1.40;;
22289;SDS011;11313;50.116;8.424;2023-06-26T23:42:58;2.05;;;1.23;;
22289;SDS011;11313;50.116;8.424;2023-06-26T23:45:28;1.67;;;1.35;;
22289;SDS011;11313;50.116;8.424;2023-06-26T23:47:56;2.33;;;1.35;;
22289;SDS011;11313;50.116;8.424;2023-06-26T23:50:22;2.05;;;1.27;;
22289;SDS011;11313;50.116;8.424;2023-06-26T23:52:47;1.77;;;1.20;;
22289;SDS011;11313;50.116;8.424;2023-06-26T23:55:12;1.30;;;1.20;;
22289;SDS011;11313;50.116;8.424;2023-06-26T23:57:38;1.10;;;1.00;;
